CZCP

Cape Parry Airport

Cape Parry, Canada
METAR CZCP 181620Z AUTO 32005KT 280V010 ////SM //// OVC005 M10/M12 A3000
Observed Flight Rules
Oct-18 @ 16:20 UTC (38 minutes ago)
Wind Clouds
320° at 5 knots
  • Overcast at 500' AGL
Temperatures Readings
Current -10°C / 14°F
Dewpoint -12°C / 10°F
Humidity 85%
Altimeter 30" Hg
Pressure 1016 hPa
Elevation 93
METAR CZCP 181620Z AUTO 32005KT 280V010 ////SM //// OVC005 M10/M12 A3000
Observed Flight Rules
Oct-18 @ 16:20 UTC
(38 minutes ago)
Wind
320° at 5 knots
Clouds
  • Overcast at 500' AGL
Temperature Dewpoint
-10°C / 14°F -12°C / 10°F
Humidity Altimeter Pressure
85% 30" Hg 1016 hPa